Time;durP1;ratioP1;P1;durP2;ratioP2;P2;SDS_P1;SDS_P2;PMS_P1;PMS_P2;Temp;Humidity;BMP_temperature;BMP_pressure;BME280_temperature;BME280_humidity;BME280_pressure;Samples;Min_cycle;Max_cycle;Signal;HPM_P1;HPM_P2
2021/09/17 00:02:11;;;;;;;5.07;4.63;;;;;;;;;;5002113;28;20214;-78
2021/09/17 00:04:37;;;;;;;6.65;4.35;;;;;;;;;;5001834;28;20256;-78
2021/09/17 00:07:03;;;;;;;4.22;3.83;;;;;;;;;;5016871;28;20190;-79
2021/09/17 00:09:29;;;;;;;5.88;3.92;;;;;;;;;;5003467;28;20171;-78
2021/09/17 00:11:55;;;;;;;4.32;3.92;;;;;;;;;;5004017;28;20171;-78
2021/09/17 00:14:21;;;;;;;4.47;4.07;;;;;;;;;;4998166;28;20182;-78
2021/09/17 00:16:47;;;;;;;4.40;4.10;;;;;;;;;;5001572;28;20213;-78
2021/09/17 00:19:14;;;;;;;4.05;3.75;;;;;;;;;;5001271;28;20225;-78
2021/09/17 00:21:40;;;;;;;4.30;4.00;;;;;;;;;;5002432;28;20224;-78
2021/09/17 00:24:06;;;;;;;8.15;4.05;;;;;;;;;;4998906;28;20328;-78
2021/09/17 00:26:32;;;;;;;5.43;4.10;;;;;;;;;;5000607;28;20263;-78
2021/09/17 00:28:58;;;;;;;5.50;4.43;;;;;;;;;;5003207;28;20245;-78
2021/09/17 00:31:24;;;;;;;7.28;5.13;;;;;;;;;;5016409;28;20220;-78
2021/09/17 00:33:50;;;;;;;4.65;4.05;;;;;;;;;;5000051;28;20478;-78
2021/09/17 00:36:16;;;;;;;4.72;3.75;;;;;;;;;;5004432;28;20206;-78
2021/09/17 00:38:42;;;;;;;6.88;4.53;;;;;;;;;;4988617;28;20195;-78
2021/09/17 00:41:10;;;;;;;5.28;4.68;;;;;;;;;;5011977;28;20204;-78
2021/09/17 00:43:37;;;;;;;6.10;4.97;;;;;;;;;;4997533;28;20249;-78
2021/09/17 00:46:03;;;;;;;5.40;4.47;;;;;;;;;;4998158;28;20191;-78
2021/09/17 00:48:29;;;;;;;5.45;4.95;;;;;;;;;;5002929;28;20235;-78
2021/09/17 00:50:55;;;;;;;7.00;4.40;;;;;;;;;;4996920;28;20176;-78
2021/09/17 00:53:21;;;;;;;4.45;4.03;;;;;;;;;;5001987;28;20183;-78
2021/09/17 00:55:47;;;;;;;4.82;4.30;;;;;;;;;;4995456;28;20197;-78
2021/09/17 00:58:13;;;;;;;5.70;4.70;;;;;;;;;;5000447;28;20219;-78
2021/09/17 01:00:39;;;;;;;4.95;4.00;;;;;;;;;;5003019;28;20640;-78
2021/09/17 01:03:05;;;;;;;6.35;4.60;;;;;;;;;;5004831;28;20167;-78
2021/09/17 01:05:32;;;;;;;4.53;4.13;;;;;;;;;;5000997;28;20215;-78
2021/09/17 01:07:58;;;;;;;4.10;3.60;;;;;;;;;;5000567;28;20190;-78
2021/09/17 01:10:24;;;;;;;3.78;3.47;;;;;;;;;;5001024;28;20189;-78
2021/09/17 01:12:50;;;;;;;6.05;4.32;;;;;;;;;;5015430;28;20190;-78
2021/09/17 01:15:17;;;;;;;5.47;4.30;;;;;;;;;;5003037;28;20185;-78
2021/09/17 01:17:44;;;;;;;8.02;4.45;;;;;;;;;;4998832;28;20174;-78
2021/09/17 01:20:11;;;;;;;5.47;4.20;;;;;;;;;;5000748;28;20205;-78
2021/09/17 01:22:37;;;;;;;6.45;4.68;;;;;;;;;;5000786;28;20179;-78
2021/09/17 01:25:06;;;;;;;6.90;3.83;;;;;;;;;;5015632;28;20260;-78
2021/09/17 01:27:32;;;;;;;6.45;4.35;;;;;;;;;;5001314;28;20516;-78
2021/09/17 01:29:59;;;;;;;5.18;4.25;;;;;;;;;;5003437;28;20243;-78
2021/09/17 01:32:25;;;;;;;5.88;4.30;;;;;;;;;;5000963;28;20215;-78
2021/09/17 01:34:51;;;;;;;3.80;3.50;;;;;;;;;;4996400;28;20220;-77
2021/09/17 01:37:18;;;;;;;7.35;4.20;;;;;;;;;;4999646;28;20181;-78
2021/09/17 01:39:44;;;;;;;6.00;4.00;;;;;;;;;;5000586;28;20222;-78
2021/09/17 01:42:10;;;;;;;6.03;4.25;;;;;;;;;;5008262;28;20204;-78
2021/09/17 01:44:37;;;;;;;5.70;3.97;;;;;;;;;;5000371;28;20262;-78
2021/09/17 01:47:03;;;;;;;4.38;3.95;;;;;;;;;;4993948;28;20219;-78
2021/09/17 01:49:29;;;;;;;4.72;3.97;;;;;;;;;;5001788;28;20211;-78
2021/09/17 01:51:55;;;;;;;4.40;3.75;;;;;;;;;;5019505;28;20207;-78
2021/09/17 01:54:21;;;;;;;6.00;3.97;;;;;;;;;;5007081;28;20179;-78
2021/09/17 01:56:47;;;;;;;3.60;3.30;;;;;;;;;;4998965;28;20180;-79
2021/09/17 01:59:13;;;;;;;6.22;4.45;;;;;;;;;;5004073;28;20238;-78
2021/09/17 02:01:39;;;;;;;4.50;3.70;;;;;;;;;;5004789;28;20201;-78
2021/09/17 02:04:05;;;;;;;6.15;3.40;;;;;;;;;;5021404;28;20337;-78
2021/09/17 02:06:31;;;;;;;6.15;3.85;;;;;;;;;;5015296;28;20208;-78
2021/09/17 02:08:57;;;;;;;5.32;4.30;;;;;;;;;;4999986;28;20184;-78
2021/09/17 02:11:24;;;;;;;4.50;4.10;;;;;;;;;;5004033;28;20192;-78
2021/09/17 02:13:50;;;;;;;4.78;4.20;;;;;;;;;;4997787;28;20189;-78
2021/09/17 02:16:16;;;;;;;5.13;4.63;;;;;;;;;;5003925;28;20208;-78
2021/09/17 02:18:42;;;;;;;6.47;4.05;;;;;;;;;;5017749;28;20200;-78
2021/09/17 02:21:09;;;;;;;4.10;3.70;;;;;;;;;;5022896;28;20192;-78
2021/09/17 02:23:35;;;;;;;4.00;3.60;;;;;;;;;;5004043;28;20179;-78
2021/09/17 02:26:01;;;;;;;4.38;3.63;;;;;;;;;;5003520;28;20191;-78
2021/09/17 02:28:27;;;;;;;3.45;3.20;;;;;;;;;;5003574;28;20212;-78
2021/09/17 02:30:53;;;;;;;4.00;3.60;;;;;;;;;;5019186;28;20219;-78
2021/09/17 02:33:19;;;;;;;4.00;3.30;;;;;;;;;;5005942;28;20185;-78
2021/09/17 02:35:45;;;;;;;4.22;3.38;;;;;;;;;;5006349;28;20219;-78
2021/09/17 02:38:11;;;;;;;5.45;3.78;;;;;;;;;;4997845;28;20193;-79
2021/09/17 02:40:37;;;;;;;3.80;3.47;;;;;;;;;;5003217;28;20606;-78
2021/09/17 02:43:03;;;;;;;6.32;3.45;;;;;;;;;;5003629;28;20215;-78
2021/09/17 02:45:29;;;;;;;4.78;4.03;;;;;;;;;;5004894;28;20255;-78
2021/09/17 02:47:55;;;;;;;7.10;3.88;;;;;;;;;;5008879;28;20191;-78
2021/09/17 02:50:21;;;;;;;4.80;3.53;;;;;;;;;;5003248;28;20183;-78
2021/09/17 02:52:47;;;;;;;3.63;3.30;;;;;;;;;;5003905;28;20225;-78
2021/09/17 02:55:14;;;;;;;3.38;3.08;;;;;;;;;;5002923;28;20727;-78
2021/09/17 02:57:40;;;;;;;4.93;4.43;;;;;;;;;;4998665;28;20226;-78
2021/09/17 03:00:08;;;;;;;5.25;3.80;;;;;;;;;;5006017;28;20588;-78
2021/09/17 03:02:34;;;;;;;4.05;3.65;;;;;;;;;;5002815;28;20226;-78
2021/09/17 03:05:00;;;;;;;6.60;3.97;;;;;;;;;;4996351;28;20192;-78
2021/09/17 03:07:27;;;;;;;4.32;3.75;;;;;;;;;;5003106;28;20219;-78
2021/09/17 03:09:53;;;;;;;3.70;3.35;;;;;;;;;;5017823;28;20301;-78
2021/09/17 03:12:19;;;;;;;6.15;4.30;;;;;;;;;;5020057;28;20174;-78
2021/09/17 03:14:46;;;;;;;6.65;3.80;;;;;;;;;;5002232;28;20178;-78
2021/09/17 03:17:12;;;;;;;5.15;3.70;;;;;;;;;;5002839;28;20187;-78
2021/09/17 03:19:38;;;;;;;6.85;4.18;;;;;;;;;;5002592;28;20187;-78
2021/09/17 03:22:05;;;;;;;4.75;3.92;;;;;;;;;;5002989;28;20230;-78
2021/09/17 03:24:31;;;;;;;4.90;3.92;;;;;;;;;;5004394;28;20230;-78
2021/09/17 03:26:57;;;;;;;4.90;3.80;;;;;;;;;;4998816;28;20168;-78
2021/09/17 03:29:23;;;;;;;3.60;3.30;;;;;;;;;;4997629;28;20191;-78
2021/09/17 03:31:50;;;;;;;4.70;4.20;;;;;;;;;;5001059;28;20255;-78
2021/09/17 03:34:16;;;;;;;3.70;3.40;;;;;;;;;;5018411;28;20661;-78
2021/09/17 03:36:43;;;;;;;3.70;3.40;;;;;;;;;;5012007;28;20197;-78
2021/09/17 03:39:10;;;;;;;5.55;4.78;;;;;;;;;;5005860;28;20182;-78
2021/09/17 03:41:36;;;;;;;6.60;4.47;;;;;;;;;;5004115;28;20203;-78
2021/09/17 03:44:02;;;;;;;4.80;4.00;;;;;;;;;;4997902;28;20284;-79
2021/09/17 03:46:28;;;;;;;7.82;4.72;;;;;;;;;;4999106;28;20187;-78
2021/09/17 03:48:54;;;;;;;8.20;4.22;;;;;;;;;;4999015;28;20572;-78
2021/09/17 03:51:21;;;;;;;3.80;3.50;;;;;;;;;;5004756;28;20186;-78
2021/09/17 03:53:47;;;;;;;5.30;4.72;;;;;;;;;;5003329;28;20604;-78
2021/09/17 03:56:13;;;;;;;5.22;3.97;;;;;;;;;;5000886;28;20691;-78
2021/09/17 03:58:39;;;;;;;5.88;4.90;;;;;;;;;;4998758;28;20661;-78
2021/09/17 04:01:05;;;;;;;4.32;3.90;;;;;;;;;;5002145;28;20217;-78
2021/09/17 04:03:31;;;;;;;7.35;4.28;;;;;;;;;;5018936;28;20199;-78
2021/09/17 04:05:57;;;;;;;6.28;4.57;;;;;;;;;;4998019;28;20199;-78
2021/09/17 04:08:23;;;;;;;6.75;5.70;;;;;;;;;;5001782;28;20207;-78
2021/09/17 04:10:49;;;;;;;5.25;4.75;;;;;;;;;;4996240;28;20188;-79
2021/09/17 04:13:15;;;;;;;6.82;5.40;;;;;;;;;;5000826;28;20215;-80
2021/09/17 04:15:41;;;;;;;4.53;4.13;;;;;;;;;;5001244;28;20191;-79
2021/09/17 04:18:07;;;;;;;6.13;4.55;;;;;;;;;;5000084;28;20205;-78
2021/09/17 04:20:33;;;;;;;5.45;4.95;;;;;;;;;;5003246;28;20207;-78
2021/09/17 04:22:59;;;;;;;6.97;4.70;;;;;;;;;;5001477;28;20238;-78
2021/09/17 04:25:25;;;;;;;7.20;5.43;;;;;;;;;;4998827;28;20202;-78
2021/09/17 04:27:51;;;;;;;5.30;4.53;;;;;;;;;;5013155;28;20612;-78
2021/09/17 04:30:17;;;;;;;6.35;4.72;;;;;;;;;;5004402;28;20620;-78
2021/09/17 04:32:44;;;;;;;6.50;4.85;;;;;;;;;;5003035;28;20198;-78
2021/09/17 04:35:11;;;;;;;5.55;4.82;;;;;;;;;;5002563;28;20257;-78
2021/09/17 04:37:44;;;;;;;5.97;5.15;;;;;;;;;;5015659;28;20187;-79
2021/09/17 04:40:11;;;;;;;5.70;5.05;;;;;;;;;;5014234;28;20218;-78
2021/09/17 04:42:37;;;;;;;6.40;4.63;;;;;;;;;;4996861;28;20195;-78
2021/09/17 04:45:04;;;;;;;7.93;5.40;;;;;;;;;;4997318;28;20569;-78
2021/09/17 04:47:30;;;;;;;5.53;5.07;;;;;;;;;;5001594;28;20194;-79
2021/09/17 04:49:58;;;;;;;10.75;5.57;;;;;;;;;;4993460;28;20194;-78
2021/09/17 04:52:24;;;;;;;6.13;5.25;;;;;;;;;;5001090;28;20202;-78
2021/09/17 04:54:51;;;;;;;8.68;6.63;;;;;;;;;;5001079;28;20175;-79
2021/09/17 04:57:17;;;;;;;7.35;6.63;;;;;;;;;;5018502;28;20175;-78
2021/09/17 04:59:43;;;;;;;9.30;6.63;;;;;;;;;;4996419;28;20250;-78
2021/09/17 05:02:09;;;;;;;7.13;6.20;;;;;;;;;;5001136;28;20215;-78
2021/09/17 05:04:35;;;;;;;8.80;6.93;;;;;;;;;;4999220;28;20187;-78
2021/09/17 05:07:01;;;;;;;8.43;6.47;;;;;;;;;;5002821;28;20210;-78
2021/09/17 05:09:30;;;;;;;8.52;6.20;;;;;;;;;;5017740;28;20205;-78
2021/09/17 05:11:56;;;;;;;7.75;6.18;;;;;;;;;;5002982;28;20182;-79
2021/09/17 05:14:22;;;;;;;7.47;6.35;;;;;;;;;;5000244;28;20183;-79
2021/09/17 05:16:48;;;;;;;7.40;6.65;;;;;;;;;;4999386;28;20383;-78
2021/09/17 05:19:15;;;;;;;9.13;6.45;;;;;;;;;;5000491;28;20203;-79
2021/09/17 05:21:41;;;;;;;11.13;6.93;;;;;;;;;;5000774;28;20195;-79
2021/09/17 05:24:07;;;;;;;9.82;7.35;;;;;;;;;;5019669;28;20174;-78
2021/09/17 05:26:34;;;;;;;9.80;7.90;;;;;;;;;;4996133;28;20290;-79
2021/09/17 05:29:00;;;;;;;8.50;6.18;;;;;;;;;;4994087;28;20180;-79
2021/09/17 05:31:26;;;;;;;7.07;5.97;;;;;;;;;;5001862;28;20183;-79
2021/09/17 05:33:52;;;;;;;7.20;5.70;;;;;;;;;;5001334;28;20269;-78
2021/09/17 05:36:18;;;;;;;6.57;5.90;;;;;;;;;;5015746;28;20183;-79
2021/09/17 05:38:44;;;;;;;7.05;5.80;;;;;;;;;;5003230;28;20179;-79
2021/09/17 05:41:10;;;;;;;8.20;6.30;;;;;;;;;;5000167;28;20206;-79
2021/09/17 05:43:36;;;;;;;8.77;6.10;;;;;;;;;;4998476;28;20223;-78
2021/09/17 05:46:02;;;;;;;7.65;5.60;;;;;;;;;;5010153;28;20199;-79
2021/09/17 05:48:28;;;;;;;8.63;7.30;;;;;;;;;;5001812;28;20202;-79
2021/09/17 05:50:54;;;;;;;9.18;7.00;;;;;;;;;;5000828;28;20183;-79
2021/09/17 05:53:20;;;;;;;7.88;6.10;;;;;;;;;;5000423;28;20206;-79
2021/09/17 05:55:46;;;;;;;7.43;6.05;;;;;;;;;;4999364;28;20666;-78
2021/09/17 05:58:12;;;;;;;7.18;6.20;;;;;;;;;;5015471;28;20202;-79
2021/09/17 06:00:38;;;;;;;7.05;6.35;;;;;;;;;;4995295;28;20522;-79
2021/09/17 06:03:04;;;;;;;7.18;6.47;;;;;;;;;;5003260;28;20173;-78
2021/09/17 06:05:30;;;;;;;6.32;5.70;;;;;;;;;;4995127;28;20170;-79
2021/09/17 06:07:56;;;;;;;8.55;6.35;;;;;;;;;;4994319;28;20190;-79
2021/09/17 06:10:22;;;;;;;7.95;7.15;;;;;;;;;;4998761;28;20191;-78
2021/09/17 06:12:48;;;;;;;8.73;7.05;;;;;;;;;;4999788;28;20207;-78
2021/09/17 06:15:18;;;;;;;7.63;6.05;;;;;;;;;;5019135;28;20230;-78
2021/09/17 06:17:44;;;;;;;13.43;6.90;;;;;;;;;;4994274;28;20183;-79
2021/09/17 06:20:11;;;;;;;5.88;5.28;;;;;;;;;;4995965;28;20187;-79
2021/09/17 06:22:39;;;;;;;12.52;6.47;;;;;;;;;;5000684;28;20207;-79
2021/09/17 06:25:06;;;;;;;7.70;6.30;;;;;;;;;;5015518;28;20203;-79
2021/09/17 06:27:32;;;;;;;9.07;6.05;;;;;;;;;;5016817;28;20221;-78
2021/09/17 06:29:58;;;;;;;7.25;5.80;;;;;;;;;;5001509;28;20215;-79
2021/09/17 06:32:24;;;;;;;9.25;6.70;;;;;;;;;;4999819;28;20191;-78
2021/09/17 06:34:50;;;;;;;8.02;6.78;;;;;;;;;;5001359;28;20206;-79
2021/09/17 06:37:16;;;;;;;9.38;6.00;;;;;;;;;;5018017;28;20190;-79
2021/09/17 06:39:42;;;;;;;6.68;5.55;;;;;;;;;;5015354;28;20218;-79
2021/09/17 06:42:08;;;;;;;6.95;5.20;;;;;;;;;;5006882;28;20199;-78
2021/09/17 06:44:34;;;;;;;6.15;5.55;;;;;;;;;;4996987;28;20218;-79
2021/09/17 06:47:00;;;;;;;6.40;5.75;;;;;;;;;;5005383;28;20234;-79
2021/09/17 06:49:27;;;;;;;5.93;5.30;;;;;;;;;;5000162;28;20210;-79
2021/09/17 06:51:53;;;;;;;7.82;6.40;;;;;;;;;;5014616;28;20180;-78
2021/09/17 06:54:19;;;;;;;6.15;5.55;;;;;;;;;;5005887;28;20183;-78
2021/09/17 06:56:45;;;;;;;7.10;5.80;;;;;;;;;;5003021;28;20187;-78
2021/09/17 06:59:11;;;;;;;7.45;6.28;;;;;;;;;;4999339;28;20688;-78
2021/09/17 07:01:37;;;;;;;8.40;5.22;;;;;;;;;;5002273;28;20730;-78
2021/09/17 07:04:03;;;;;;;7.00;5.55;;;;;;;;;;4997772;28;20720;-78
2021/09/17 07:06:32;;;;;;;7.70;5.32;;;;;;;;;;5004681;28;20202;-79
2021/09/17 07:08:58;;;;;;;6.25;5.28;;;;;;;;;;4999185;28;20175;-79
2021/09/17 07:11:24;;;;;;;5.85;5.35;;;;;;;;;;5004572;28;20194;-78
2021/09/17 07:13:50;;;;;;;6.80;5.28;;;;;;;;;;5002329;28;20184;-78
2021/09/17 07:16:16;;;;;;;5.40;4.90;;;;;;;;;;5002612;28;20191;-78
2021/09/17 07:18:43;;;;;;;6.07;5.55;;;;;;;;;;5003884;28;20191;-78
2021/09/17 07:21:09;;;;;;;6.65;4.63;;;;;;;;;;5005615;28;20196;-78
2021/09/17 07:23:35;;;;;;;6.85;6.20;;;;;;;;;;5014560;28;20652;-78
2021/09/17 07:26:01;;;;;;;6.22;5.32;;;;;;;;;;5003613;28;20193;-78
2021/09/17 07:28:31;;;;;;;5.43;4.85;;;;;;;;;;5003645;28;20266;-78
2021/09/17 07:30:57;;;;;;;8.77;5.65;;;;;;;;;;4999539;28;20190;-78
2021/09/17 07:33:23;;;;;;;7.13;6.43;;;;;;;;;;5002365;28;20194;-78
2021/09/17 07:35:49;;;;;;;7.75;6.72;;;;;;;;;;5005439;28;20186;-78
2021/09/17 07:38:15;;;;;;;8.63;7.78;;;;;;;;;;5003653;28;20183;-77
2021/09/17 07:40:42;;;;;;;9.95;7.68;;;;;;;;;;5000537;28;20234;-78
2021/09/17 07:43:08;;;;;;;8.30;7.35;;;;;;;;;;5003362;28;20833;-78
2021/09/17 07:45:34;;;;;;;9.18;8.25;;;;;;;;;;5003390;28;20180;-78
2021/09/17 07:48:01;;;;;;;12.43;8.00;;;;;;;;;;5005161;28;20171;-78
2021/09/17 07:50:27;;;;;;;9.63;8.63;;;;;;;;;;5003328;28;20183;-78
2021/09/17 07:52:53;;;;;;;9.00;8.05;;;;;;;;;;5002882;28;20560;-78
2021/09/17 07:55:20;;;;;;;11.25;9.00;;;;;;;;;;5003717;28;20191;-78
2021/09/17 07:57:46;;;;;;;9.98;8.15;;;;;;;;;;5017214;28;20277;-79
2021/09/17 08:00:13;;;;;;;9.57;8.57;;;;;;;;;;5019712;28;20217;-77
2021/09/17 08:02:43;;;;;;;8.52;7.72;;;;;;;;;;5001172;28;20640;-77
2021/09/17 08:05:09;;;;;;;8.15;6.97;;;;;;;;;;5000306;28;20187;-78
2021/09/17 08:07:36;;;;;;;6.55;5.53;;;;;;;;;;5003264;28;20225;-78
2021/09/17 08:10:02;;;;;;;7.18;6.47;;;;;;;;;;5003812;28;20184;-78
2021/09/17 08:12:28;;;;;;;5.80;5.20;;;;;;;;;;5003563;28;20187;-78
2021/09/17 08:14:54;;;;;;;4.53;4.15;;;;;;;;;;5002985;28;20175;-78
2021/09/17 08:17:20;;;;;;;4.15;3.75;;;;;;;;;;5001777;28;20715;-78
2021/09/17 08:19:46;;;;;;;4.60;4.20;;;;;;;;;;5000374;28;20230;-78
2021/09/17 08:22:12;;;;;;;5.47;4.10;;;;;;;;;;5001309;28;20234;-78
2021/09/17 08:24:38;;;;;;;8.15;4.10;;;;;;;;;;5018497;28;20183;-78
2021/09/17 08:27:04;;;;;;;3.97;2.97;;;;;;;;;;5003995;28;20217;-78
2021/09/17 08:29:30;;;;;;;2.92;2.72;;;;;;;;;;5003017;28;20263;-78
2021/09/17 08:31:56;;;;;;;4.65;2.85;;;;;;;;;;5002445;28;20194;-78
2021/09/17 08:34:22;;;;;;;3.15;2.85;;;;;;;;;;5002056;28;20202;-78
2021/09/17 08:36:48;;;;;;;3.70;2.72;;;;;;;;;;5003343;28;20191;-78
2021/09/17 08:39:15;;;;;;;3.47;2.40;;;;;;;;;;5004615;28;20179;-78
2021/09/17 08:41:43;;;;;;;3.33;3.03;;;;;;;;;;5003590;28;20294;-78
2021/09/17 08:44:09;;;;;;;3.28;3.00;;;;;;;;;;5000418;28;20293;-77
2021/09/17 08:46:38;;;;;;;3.72;3.33;;;;;;;;;;4999410;28;20547;-78
2021/09/17 08:49:05;;;;;;;6.07;2.80;;;;;;;;;;4999564;28;20233;-79
2021/09/17 08:51:31;;;;;;;2.67;1.98;;;;;;;;;;5017977;28;20187;-79
2021/09/17 08:53:57;;;;;;;5.25;2.60;;;;;;;;;;5004710;28;20179;-79
2021/09/17 08:56:23;;;;;;;4.55;2.63;;;;;;;;;;4993541;28;20259;-79
2021/09/17 08:58:49;;;;;;;2.78;2.30;;;;;;;;;;4995003;28;20188;-79
2021/09/17 09:01:26;;;;;;;2.85;2.50;;;;;;;;;;5000494;28;20215;-78
2021/09/17 09:03:52;;;;;;;2.50;2.15;;;;;;;;;;5000740;28;20190;-78
2021/09/17 09:06:19;;;;;;;2.65;2.40;;;;;;;;;;5003664;28;20183;-78
2021/09/17 09:08:45;;;;;;;2.38;2.10;;;;;;;;;;5002482;28;20160;-78
2021/09/17 09:11:30;;;;;;;3.55;3.08;;;;;;;;;;4994098;28;20195;-78
2021/09/17 09:14:01;;;;;;;2.30;2.10;;;;;;;;;;4994012;28;20196;-78
2021/09/17 09:16:27;;;;;;;3.85;3.28;;;;;;;;;;5000414;28;20526;-79
2021/09/17 09:18:54;;;;;;;2.60;2.40;;;;;;;;;;5015656;28;20223;-80
2021/09/17 09:21:27;;;;;;;6.05;2.33;;;;;;;;;;5002651;28;20223;-78
2021/09/17 09:24:13;;;;;;;3.83;2.30;;;;;;;;;;5000540;28;20171;-79
2021/09/17 09:26:39;;;;;;;4.05;2.80;;;;;;;;;;4995835;28;20171;-80
2021/09/17 09:29:06;;;;;;;3.53;2.67;;;;;;;;;;5000870;28;20183;-79
2021/09/17 09:31:42;;;;;;;5.80;2.58;;;;;;;;;;5000488;28;20254;-79
2021/09/17 09:34:10;;;;;;;2.72;2.53;;;;;;;;;;5001703;28;20251;-78
2021/09/17 09:36:36;;;;;;;4.10;2.38;;;;;;;;;;5003788;28;20199;-78
2021/09/17 09:39:03;;;;;;;5.35;2.72;;;;;;;;;;4998043;28;20534;-79
2021/09/17 09:41:33;;;;;;;2.88;2.10;;;;;;;;;;4999754;28;20276;-79
2021/09/17 09:43:59;;;;;;;2.35;2.15;;;;;;;;;;4999938;28;20224;-79
2021/09/17 09:46:27;;;;;;;4.20;2.23;;;;;;;;;;5000409;28;20194;-79
2021/09/17 09:49:01;;;;;;;2.38;2.17;;;;;;;;;;5000740;28;20510;-80
2021/09/17 09:51:27;;;;;;;3.83;2.63;;;;;;;;;;5002770;28;20531;-79
2021/09/17 09:53:54;;;;;;;4.47;2.50;;;;;;;;;;5002106;28;20168;-79
2021/09/17 09:56:20;;;;;;;2.67;2.25;;;;;;;;;;5000054;28;20270;-78
2021/09/17 09:58:49;;;;;;;4.20;2.38;;;;;;;;;;5000685;28;20184;-79
2021/09/17 10:01:17;;;;;;;3.28;2.30;;;;;;;;;;5000144;28;20212;-79
2021/09/17 10:03:43;;;;;;;2.50;2.30;;;;;;;;;;5000476;28;20218;-79
2021/09/17 10:06:09;;;;;;;3.35;2.13;;;;;;;;;;5004061;28;20175;-80
2021/09/17 10:08:36;;;;;;;2.95;2.38;;;;;;;;;;5000604;28;20242;-81
2021/09/17 10:11:02;;;;;;;3.55;2.20;;;;;;;;;;4993900;28;20208;-81
2021/09/17 10:13:28;;;;;;;2.35;2.15;;;;;;;;;;5003553;28;20200;-80
2021/09/17 10:15:54;;;;;;;3.38;2.25;;;;;;;;;;5004863;28;20253;-79
2021/09/17 10:18:20;;;;;;;3.92;2.55;;;;;;;;;;5006494;28;20182;-80
2021/09/17 10:20:46;;;;;;;2.97;1.95;;;;;;;;;;5002802;28;20200;-79
2021/09/17 10:23:26;;;;;;;2.80;2.33;;;;;;;;;;5004879;28;20185;-79
2021/09/17 10:26:04;;;;;;;2.40;2.20;;;;;;;;;;5003729;28;20577;-78
2021/09/17 10:28:30;;;;;;;3.47;2.42;;;;;;;;;;4995084;28;20188;-80
2021/09/17 10:31:14;;;;;;;2.25;2.05;;;;;;;;;;5004119;28;20189;-79
2021/09/17 10:33:40;;;;;;;4.30;2.42;;;;;;;;;;5019693;28;20201;-79
2021/09/17 10:36:06;;;;;;;2.60;2.40;;;;;;;;;;5006859;28;20411;-79
2021/09/17 10:38:33;;;;;;;2.95;2.75;;;;;;;;;;5004040;28;20258;-79
2021/09/17 10:41:02;;;;;;;3.40;2.00;;;;;;;;;;4996918;28;20292;-79
2021/09/17 10:43:38;;;;;;;2.40;2.20;;;;;;;;;;5000255;28;20220;-79
2021/09/17 10:46:08;;;;;;;3.40;2.50;;;;;;;;;;5002745;28;20181;-80
2021/09/17 10:48:45;;;;;;;3.20;3.00;;;;;;;;;;5003484;28;20191;-78
2021/09/17 10:51:29;;;;;;;3.10;2.50;;;;;;;;;;5022544;28;20177;-80
2021/09/17 10:53:59;;;;;;;1.90;1.73;;;;;;;;;;5009540;28;20179;-79
2021/09/17 10:56:26;;;;;;;2.80;2.15;;;;;;;;;;4996852;28;20187;-80
2021/09/17 10:59:11;;;;;;;2.20;2.00;;;;;;;;;;5000773;28;20669;-79
2021/09/17 11:02:00;;;;;;;2.40;2.20;;;;;;;;;;4994949;28;20235;-80
2021/09/17 11:04:30;;;;;;;4.03;3.63;;;;;;;;;;4993700;28;20194;-80
2021/09/17 11:07:19;;;;;;;2.45;2.25;;;;;;;;;;4999819;28;20271;-79
2021/09/17 11:09:47;;;;;;;3.53;2.10;;;;;;;;;;4998232;28;20220;-79
2021/09/17 11:12:14;;;;;;;4.32;2.65;;;;;;;;;;5006153;28;20239;-78
2021/09/17 11:14:40;;;;;;;2.97;2.60;;;;;;;;;;5004775;28;20167;-79
2021/09/17 11:17:06;;;;;;;4.25;2.15;;;;;;;;;;5002986;28;20187;-79
2021/09/17 11:19:32;;;;;;;2.80;2.40;;;;;;;;;;5002834;28;20220;-79
2021/09/17 11:22:00;;;;;;;3.07;2.63;;;;;;;;;;5002407;28;20986;-79
2021/09/17 11:24:28;;;;;;;3.27;3.00;;;;;;;;;;5004290;28;20389;-80
2021/09/17 11:26:55;;;;;;;2.65;2.45;;;;;;;;;;5004470;28;20418;-79
2021/09/17 11:29:22;;;;;;;4.65;3.10;;;;;;;;;;5002475;28;20187;-80
2021/09/17 11:31:52;;;;;;;3.87;2.93;;;;;;;;;;5003135;28;20294;-79
2021/09/17 11:34:20;;;;;;;2.55;2.35;;;;;;;;;;5003562;28;20458;-79
2021/09/17 11:36:51;;;;;;;4.03;2.30;;;;;;;;;;5002899;28;20183;-79
2021/09/17 11:39:21;;;;;;;2.60;2.40;;;;;;;;;;5005071;28;20502;-79
2021/09/17 11:42:07;;;;;;;4.00;3.10;;;;;;;;;;5005050;28;20469;-79
2021/09/17 11:44:36;;;;;;;3.30;2.50;;;;;;;;;;5004382;28;20469;-80
2021/09/17 11:47:04;;;;;;;2.87;2.67;;;;;;;;;;5001400;28;20476;-80
2021/09/17 11:49:32;;;;;;;5.27;2.60;;;;;;;;;;5003704;28;20731;-79
2021/09/17 11:52:05;;;;;;;3.70;2.67;;;;;;;;;;5002332;28;20510;-79
2021/09/17 11:54:31;;;;;;;2.40;2.20;;;;;;;;;;5003138;28;20457;-78
2021/09/17 11:57:05;;;;;;;3.90;3.33;;;;;;;;;;5003088;28;20408;-80
2021/09/17 11:59:35;;;;;;;2.53;2.33;;;;;;;;;;5002977;28;20426;-79
2021/09/17 12:02:18;;;;;;;2.37;2.17;;;;;;;;;;5017060;28;20455;-79
2021/09/17 12:04:46;;;;;;;2.70;2.50;;;;;;;;;;4998487;28;20420;-79
2021/09/17 12:07:13;;;;;;;2.70;2.50;;;;;;;;;;5001598;28;20932;-79
2021/09/17 12:09:39;;;;;;;2.60;2.40;;;;;;;;;;5018075;28;20450;-79
2021/09/17 12:12:05;;;;;;;2.70;2.30;;;;;;;;;;5005518;28;20724;-79
2021/09/17 12:14:31;;;;;;;4.23;3.17;;;;;;;;;;4994942;28;20776;-79
2021/09/17 12:17:05;;;;;;;3.03;2.70;;;;;;;;;;5001923;28;20473;-79
2021/09/17 12:19:31;;;;;;;3.20;2.70;;;;;;;;;;4999078;28;20821;-79
2021/09/17 12:21:58;;;;;;;2.40;1.90;;;;;;;;;;4998503;28;20471;-78
2021/09/17 12:24:27;;;;;;;2.97;2.50;;;;;;;;;;5018574;28;20929;-80
2021/09/17 12:26:58;;;;;;;3.20;2.60;;;;;;;;;;4997943;28;20418;-80
2021/09/17 12:29:30;;;;;;;4.20;3.13;;;;;;;;;;4995217;28;20796;-77
2021/09/17 12:32:16;;;;;;;2.57;2.37;;;;;;;;;;4995343;28;20509;-77
2021/09/17 12:35:04;;;;;;;2.50;2.30;;;;;;;;;;5001531;28;20439;-77
2021/09/17 12:37:30;;;;;;;2.57;2.37;;;;;;;;;;5002596;28;20475;-76
2021/09/17 12:40:18;;;;;;;4.00;2.70;;;;;;;;;;4999570;28;20492;-77
2021/09/17 12:42:45;;;;;;;3.13;2.40;;;;;;;;;;4997274;28;20494;-77
2021/09/17 12:45:11;;;;;;;3.80;2.43;;;;;;;;;;5016625;28;20484;-77
2021/09/17 12:47:37;;;;;;;2.10;2.00;;;;;;;;;;5015370;28;20474;-77
2021/09/17 12:50:13;;;;;;;1.87;1.77;;;;;;;;;;4999266;28;20522;-76
2021/09/17 12:52:46;;;;;;;3.40;2.20;;;;;;;;;;5000415;28;20423;-76
2021/09/17 12:55:24;;;;;;;2.63;2.33;;;;;;;;;;4999556;28;20751;-77
2021/09/17 12:58:03;;;;;;;2.50;2.30;;;;;;;;;;5001353;28;20445;-77
2021/09/17 13:00:33;;;;;;;8.43;2.20;;;;;;;;;;5002132;28;20466;-78
2021/09/17 13:03:04;;;;;;;2.77;2.40;;;;;;;;;;5001561;28;20602;-78
2021/09/17 13:05:31;;;;;;;3.57;3.23;;;;;;;;;;5000998;28;20446;-79
2021/09/17 13:07:57;;;;;;;3.10;2.37;;;;;;;;;;5000487;28;20498;-78
2021/09/17 13:10:23;;;;;;;2.13;1.93;;;;;;;;;;4995241;28;20440;-81
2021/09/17 13:12:50;;;;;;;2.10;1.90;;;;;;;;;;5001356;28;20505;-78
2021/09/17 13:15:16;;;;;;;2.17;1.97;;;;;;;;;;5003243;28;20429;-78
2021/09/17 13:17:42;;;;;;;2.17;2.07;;;;;;;;;;4999208;28;21041;-78
2021/09/17 13:20:10;;;;;;;3.23;2.00;;;;;;;;;;4999717;28;20450;-79
2021/09/17 13:22:37;;;;;;;2.73;2.53;;;;;;;;;;5001510;28;20497;-78
2021/09/17 13:25:04;;;;;;;2.93;2.30;;;;;;;;;;4999335;28;20462;-78
2021/09/17 13:27:30;;;;;;;2.47;1.90;;;;;;;;;;5000336;28;20995;-78
2021/09/17 13:29:57;;;;;;;2.50;2.40;;;;;;;;;;5002021;28;20903;-78
2021/09/17 13:32:25;;;;;;;2.40;2.20;;;;;;;;;;5000155;28;20440;-78
2021/09/17 13:34:51;;;;;;;2.70;2.27;;;;;;;;;;5000609;28;20454;-79
2021/09/17 13:37:17;;;;;;;2.00;1.90;;;;;;;;;;4998685;28;20475;-77
2021/09/17 13:39:43;;;;;;;2.10;2.00;;;;;;;;;;5002309;28;20529;-78
2021/09/17 13:42:10;;;;;;;2.43;2.23;;;;;;;;;;5000459;28;20839;-78
2021/09/17 13:44:36;;;;;;;3.20;2.33;;;;;;;;;;5001556;28;21020;-78
2021/09/17 13:47:03;;;;;;;2.43;2.23;;;;;;;;;;5020382;28;20449;-78
2021/09/17 13:49:29;;;;;;;2.60;2.40;;;;;;;;;;5006077;28;20557;-78
2021/09/17 13:51:55;;;;;;;2.67;2.47;;;;;;;;;;5010192;28;20441;-79
2021/09/17 13:54:21;;;;;;;2.97;2.40;;;;;;;;;;5008210;28;20426;-78
2021/09/17 13:56:47;;;;;;;2.60;1.87;;;;;;;;;;5005652;28;20437;-78
2021/09/17 13:59:13;;;;;;;4.47;2.50;;;;;;;;;;5010439;28;20443;-78
2021/09/17 14:01:39;;;;;;;2.03;1.93;;;;;;;;;;5007792;28;20464;-78
2021/09/17 14:04:08;;;;;;;2.57;2.17;;;;;;;;;;5008861;28;20446;-78
2021/09/17 14:06:35;;;;;;;2.80;2.60;;;;;;;;;;5006885;28;20488;-77
2021/09/17 14:09:01;;;;;;;2.20;2.10;;;;;;;;;;5008847;28;20433;-79
2021/09/17 14:11:27;;;;;;;2.40;2.20;;;;;;;;;;5002045;28;20481;-79
2021/09/17 14:13:53;;;;;;;2.40;1.93;;;;;;;;;;4999344;28;20451;-78
2021/09/17 14:16:19;;;;;;;2.40;2.10;;;;;;;;;;5004210;28;20494;-79
2021/09/17 14:18:45;;;;;;;3.80;2.40;;;;;;;;;;5007008;28;20846;-79
2021/09/17 14:21:11;;;;;;;1.90;1.80;;;;;;;;;;5004036;28;20521;-78
2021/09/17 14:23:37;;;;;;;6.50;2.33;;;;;;;;;;5005683;28;20438;-78
2021/09/17 14:26:03;;;;;;;2.70;2.13;;;;;;;;;;5006184;28;20487;-79
2021/09/17 14:28:29;;;;;;;3.13;1.90;;;;;;;;;;5005435;28;20459;-79
2021/09/17 14:30:55;;;;;;;2.70;2.50;;;;;;;;;;5004640;28;20441;-78
2021/09/17 14:33:22;;;;;;;2.57;1.87;;;;;;;;;;5007700;28;20452;-79
2021/09/17 14:35:49;;;;;;;4.00;2.37;;;;;;;;;;5008883;28;20467;-79
2021/09/17 14:38:15;;;;;;;2.40;2.27;;;;;;;;;;5006570;28;20440;-79
2021/09/17 14:40:41;;;;;;;3.17;2.10;;;;;;;;;;5006495;28;20465;-79
2021/09/17 14:43:07;;;;;;;2.40;2.20;;;;;;;;;;5004316;28;20496;-78
2021/09/17 14:45:34;;;;;;;2.20;2.00;;;;;;;;;;5005329;28;21509;-79